sensor_id;sensor_type;location;lat;lon;timestamp;temperature;humidity
31837;DHT22;18401;49.344;6.240;2023-02-01T04:30:34;5.70;99.90
31837;DHT22;18401;49.344;6.240;2023-02-01T04:32:59;5.80;99.90
31837;DHT22;18401;49.344;6.240;2023-02-01T04:35:25;5.90;99.90
31837;DHT22;18401;49.344;6.240;2023-02-01T04:37:51;5.90;99.90
31837;DHT22;18401;49.344;6.240;2023-02-01T04:40:16;5.90;99.90
31837;DHT22;18401;49.344;6.240;2023-02-01T04:42:42;5.90;99.90
31837;DHT22;18401;49.344;6.240;2023-02-01T04:45:08;5.90;99.90
31837;DHT22;18401;49.344;6.240;2023-02-01T04:47:34;5.80;99.90
31837;DHT22;18401;49.344;6.240;2023-02-01T04:50:00;5.80;99.90
31837;DHT22;18401;49.344;6.240;2023-02-01T04:52:26;5.80;99.90
31837;DHT22;18401;49.344;6.240;2023-02-01T04:54:52;5.90;99.90
31837;DHT22;18401;49.344;6.240;2023-02-01T04:57:19;5.90;99.90
31837;DHT22;18401;49.344;6.240;2023-02-01T04:59:45;5.90;99.90
31837;DHT22;18401;49.344;6.240;2023-02-01T05:02:11;6.00;99.90
31837;DHT22;18401;49.344;6.240;2023-02-01T05:04:36;5.90;99.90
31837;DHT22;18401;49.344;6.240;2023-02-01T05:07:02;5.90;99.90
31837;DHT22;18401;49.344;6.240;2023-02-01T05:09:28;5.90;99.90
31837;DHT22;18401;49.344;6.240;2023-02-01T05:11:53;5.80;99.90
31837;DHT22;18401;49.344;6.240;2023-02-01T05:14:38;5.80;99.90
31837;DHT22;18401;49.344;6.240;2023-02-01T05:17:03;5.80;99.90
31837;DHT22;18401;49.344;6.240;2023-02-01T05:19:29;5.80;99.90
31837;DHT22;18401;49.344;6.240;2023-02-01T05:21:55;5.80;99.90
31837;DHT22;18401;49.344;6.240;2023-02-01T05:24:20;5.70;99.90
31837;DHT22;18401;49.344;6.240;2023-02-01T05:26:47;5.70;99.90
31837;DHT22;18401;49.344;6.240;2023-02-01T05:29:14;5.70;99.90
31837;DHT22;18401;49.344;6.240;2023-02-01T05:31:40;5.60;99.90
31837;DHT22;18401;49.344;6.240;2023-02-01T05:34:06;5.60;99.90
31837;DHT22;18401;49.344;6.240;2023-02-01T05:36:32;5.60;99.90
31837;DHT22;18401;49.344;6.240;2023-02-01T05:38:58;5.60;99.90
31837;DHT22;18401;49.344;6.240;2023-02-01T05:41:24;5.60;99.90
31837;DHT22;18401;49.344;6.240;2023-02-01T05:43:50;5.60;99.90
31837;DHT22;18401;49.344;6.240;2023-02-01T05:46:16;5.60;99.90
31837;DHT22;18401;49.344;6.240;2023-02-01T05:48:42;5.60;99.90
31837;DHT22;18401;49.344;6.240;2023-02-01T05:51:09;5.60;99.90
31837;DHT22;18401;49.344;6.240;2023-02-01T05:53:34;5.60;99.90
31837;DHT22;18401;49.344;6.240;2023-02-01T05:56:00;5.70;99.90
31837;DHT22;18401;49.344;6.240;2023-02-01T05:58:26;5.80;99.90
31837;DHT22;18401;49.344;6.240;2023-02-01T06:00:52;5.70;99.90
31837;DHT22;18401;49.344;6.240;2023-02-01T06:03:18;5.70;99.90
31837;DHT22;18401;49.344;6.240;2023-02-01T06:05:45;5.80;99.90
31837;DHT22;18401;49.344;6.240;2023-02-01T06:08:11;5.80;99.90
31837;DHT22;18401;49.344;6.240;2023-02-01T06:10:36;5.70;99.90
31837;DHT22;18401;49.344;6.240;2023-02-01T06:13:02;5.70;99.90
31837;DHT22;18401;49.344;6.240;2023-02-01T06:15:28;5.70;99.90
31837;DHT22;18401;49.344;6.240;2023-02-01T06:17:54;5.70;99.90
31837;DHT22;18401;49.344;6.240;2023-02-01T06:20:20;5.70;99.90
31837;DHT22;18401;49.344;6.240;2023-02-01T06:22:46;5.60;99.90
31837;DHT22;18401;49.344;6.240;2023-02-01T06:25:11;5.60;99.90
31837;DHT22;18401;49.344;6.240;2023-02-01T06:27:37;5.60;99.90
31837;DHT22;18401;49.344;6.240;2023-02-01T06:30:04;5.60;99.90
31837;DHT22;18401;49.344;6.240;2023-02-01T06:32:30;5.60;99.90
31837;DHT22;18401;49.344;6.240;2023-02-01T06:34:56;5.60;99.90
31837;DHT22;18401;49.344;6.240;2023-02-01T06:37:23;5.60;99.90
31837;DHT22;18401;49.344;6.240;2023-02-01T06:39:50;5.60;99.90
31837;DHT22;18401;49.344;6.240;2023-02-01T06:42:16;5.70;99.90
31837;DHT22;18401;49.344;6.240;2023-02-01T06:44:42;5.60;99.90
31837;DHT22;18401;49.344;6.240;2023-02-01T06:47:08;5.50;99.90
31837;DHT22;18401;49.344;6.240;2023-02-01T06:49:33;5.50;99.90
31837;DHT22;18401;49.344;6.240;2023-02-01T06:51:59;5.50;99.90
31837;DHT22;18401;49.344;6.240;2023-02-01T06:54:26;5.60;99.90
31837;DHT22;18401;49.344;6.240;2023-02-01T06:56:51;5.60;99.90
31837;DHT22;18401;49.344;6.240;2023-02-01T06:59:17;5.50;99.90
31837;DHT22;18401;49.344;6.240;2023-02-01T07:01:43;5.30;99.90
31837;DHT22;18401;49.344;6.240;2023-02-01T07:04:11;5.30;99.90
31837;DHT22;18401;49.344;6.240;2023-02-01T07:06:37;5.40;99.90
31837;DHT22;18401;49.344;6.240;2023-02-01T07:09:03;5.50;99.90
31837;DHT22;18401;49.344;6.240;2023-02-01T07:11:29;5.50;99.90
31837;DHT22;18401;49.344;6.240;2023-02-01T07:13:56;5.50;99.90
31837;DHT22;18401;49.344;6.240;2023-02-01T07:16:22;5.50;99.90
31837;DHT22;18401;49.344;6.240;2023-02-01T07:18:50;5.40;99.90
31837;DHT22;18401;49.344;6.240;2023-02-01T07:21:15;5.40;99.90
31837;DHT22;18401;49.344;6.240;2023-02-01T07:23:41;5.40;99.90
31837;DHT22;18401;49.344;6.240;2023-02-01T07:26:09;5.30;99.90
31837;DHT22;18401;49.344;6.240;2023-02-01T07:28:35;5.00;99.90
31837;DHT22;18401;49.344;6.240;2023-02-01T07:31:13;5.00;99.90
31837;DHT22;18401;49.344;6.240;2023-02-01T07:33:41;5.20;99.90
31837;DHT22;18401;49.344;6.240;2023-02-01T07:36:08;5.30;99.90
31837;DHT22;18401;49.344;6.240;2023-02-01T07:38:36;5.40;99.90
31837;DHT22;18401;49.344;6.240;2023-02-01T07:41:03;5.30;99.90
31837;DHT22;18401;49.344;6.240;2023-02-01T07:43:29;5.20;99.90
31837;DHT22;18401;49.344;6.240;2023-02-01T07:45:55;5.30;99.90
31837;DHT22;18401;49.344;6.240;2023-02-01T07:48:22;5.20;99.90
31837;DHT22;18401;49.344;6.240;2023-02-01T07:50:56;5.30;99.90
31837;DHT22;18401;49.344;6.240;2023-02-01T07:53:21;5.20;99.90
31837;DHT22;18401;49.344;6.240;2023-02-01T07:55:47;5.30;99.90
31837;DHT22;18401;49.344;6.240;2023-02-01T07:58:13;5.30;99.90
31837;DHT22;18401;49.344;6.240;2023-02-01T08:00:39;5.30;99.90
31837;DHT22;18401;49.344;6.240;2023-02-01T08:03:23;5.40;99.90
31837;DHT22;18401;49.344;6.240;2023-02-01T08:05:54;5.40;99.90
31837;DHT22;18401;49.344;6.240;2023-02-01T08:08:20;5.40;99.90
31837;DHT22;18401;49.344;6.240;2023-02-01T08:10:45;5.40;99.90
31837;DHT22;18401;49.344;6.240;2023-02-01T08:13:11;5.40;99.90
31837;DHT22;18401;49.344;6.240;2023-02-01T08:15:36;5.40;99.90
31837;DHT22;18401;49.344;6.240;2023-02-01T08:18:02;5.40;99.90
31837;DHT22;18401;49.344;6.240;2023-02-01T08:20:28;5.40;99.90
31837;DHT22;18401;49.344;6.240;2023-02-01T08:22:54;5.40;99.90
31837;DHT22;18401;49.344;6.240;2023-02-01T08:25:20;5.50;99.90
31837;DHT22;18401;49.344;6.240;2023-02-01T08:27:46;5.40;99.90
31837;DHT22;18401;49.344;6.240;2023-02-01T08:30:12;5.40;99.90
31837;DHT22;18401;49.344;6.240;2023-02-01T08:32:38;5.40;99.90
31837;DHT22;18401;49.344;6.240;2023-02-01T08:35:04;5.50;99.90
31837;DHT22;18401;49.344;6.240;2023-02-01T08:37:30;5.40;99.90
31837;DHT22;18401;49.344;6.240;2023-02-01T08:39:55;5.50;99.90
31837;DHT22;18401;49.344;6.240;2023-02-01T08:42:21;5.60;99.90
31837;DHT22;18401;49.344;6.240;2023-02-01T08:45:06;5.60;99.90
31837;DHT22;18401;49.344;6.240;2023-02-01T08:47:33;5.50;99.90
31837;DHT22;18401;49.344;6.240;2023-02-01T08:49:59;5.50;99.90
31837;DHT22;18401;49.344;6.240;2023-02-01T08:52:25;5.40;99.90
31837;DHT22;18401;49.344;6.240;2023-02-01T08:54:51;5.50;99.90
31837;DHT22;18401;49.344;6.240;2023-02-01T08:57:16;5.50;99.90
31837;DHT22;18401;49.344;6.240;2023-02-01T08:59:42;5.50;99.90
31837;DHT22;18401;49.344;6.240;2023-02-01T09:02:14;5.50;99.90
31837;DHT22;18401;49.344;6.240;2023-02-01T09:04:40;5.50;99.90
31837;DHT22;18401;49.344;6.240;2023-02-01T09:07:07;5.50;99.90
31837;DHT22;18401;49.344;6.240;2023-02-01T09:09:33;5.60;99.90
31837;DHT22;18401;49.344;6.240;2023-02-01T09:11:59;5.60;99.90
31837;DHT22;18401;49.344;6.240;2023-02-01T09:14:24;5.60;99.90
31837;DHT22;18401;49.344;6.240;2023-02-01T09:16:50;5.60;99.90
31837;DHT22;18401;49.344;6.240;2023-02-01T09:19:15;5.70;99.90
31837;DHT22;18401;49.344;6.240;2023-02-01T09:21:41;5.60;99.90
31837;DHT22;18401;49.344;6.240;2023-02-01T09:24:10;5.60;99.90
31837;DHT22;18401;49.344;6.240;2023-02-01T09:26:36;5.60;99.90
31837;DHT22;18401;49.344;6.240;2023-02-01T09:29:03;5.80;99.90
31837;DHT22;18401;49.344;6.240;2023-02-01T09:31:30;6.00;99.90
31837;DHT22;18401;49.344;6.240;2023-02-01T09:33:56;6.20;99.90
31837;DHT22;18401;49.344;6.240;2023-02-01T09:36:22;6.10;99.90
31837;DHT22;18401;49.344;6.240;2023-02-01T09:38:48;6.00;99.90
31837;DHT22;18401;49.344;6.240;2023-02-01T09:44:32;6.10;99.90
31837;DHT22;18401;49.344;6.240;2023-02-01T09:47:02;6.10;99.90
31837;DHT22;18401;49.344;6.240;2023-02-01T09:49:39;6.20;99.90
31837;DHT22;18401;49.344;6.240;2023-02-01T09:52:12;6.20;99.90
31837;DHT22;18401;49.344;6.240;2023-02-01T09:54:44;6.30;99.90
31837;DHT22;18401;49.344;6.240;2023-02-01T09:57:25;6.30;99.90
31837;DHT22;18401;49.344;6.240;2023-02-01T10:00:04;6.10;99.90
31837;DHT22;18401;49.344;6.240;2023-02-01T10:02:36;6.10;99.90
31837;DHT22;18401;49.344;6.240;2023-02-01T10:05:04;6.10;99.90
31837;DHT22;18401;49.344;6.240;2023-02-01T10:08:10;6.10;99.90
31837;DHT22;18401;49.344;6.240;2023-02-01T10:10:45;6.20;99.90
31837;DHT22;18401;49.344;6.240;2023-02-01T10:13:31;6.60;99.90
31837;DHT22;18401;49.344;6.240;2023-02-01T10:27:21;7.30;99.90
31837;DHT22;18401;49.344;6.240;2023-02-01T10:29:54;6.80;99.90
31837;DHT22;18401;49.344;6.240;2023-02-01T10:32:24;6.70;99.90
31837;DHT22;18401;49.344;6.240;2023-02-01T10:34:57;6.50;99.90
31837;DHT22;18401;49.344;6.240;2023-02-01T10:37:31;6.40;99.90
31837;DHT22;18401;49.344;6.240;2023-02-01T10:40:00;6.40;99.90
31837;DHT22;18401;49.344;6.240;2023-02-01T10:42:28;6.40;99.90
31837;DHT22;18401;49.344;6.240;2023-02-01T10:44:57;6.50;99.90
31837;DHT22;18401;49.344;6.240;2023-02-01T10:47:24;6.60;99.90
31837;DHT22;18401;49.344;6.240;2023-02-01T10:52:39;6.50;99.90
31837;DHT22;18401;49.344;6.240;2023-02-01T10:55:25;6.40;99.90
31837;DHT22;18401;49.344;6.240;2023-02-01T10:58:03;6.50;99.90
31837;DHT22;18401;49.344;6.240;2023-02-01T11:00:44;6.40;99.90
31837;DHT22;18401;49.344;6.240;2023-02-01T11:06:25;6.50;99.90
31837;DHT22;18401;49.344;6.240;2023-02-01T11:09:00;6.70;99.90
31837;DHT22;18401;49.344;6.240;2023-02-01T11:11:27;6.80;99.90
31837;DHT22;18401;49.344;6.240;2023-02-01T11:13:57;6.80;99.90
31837;DHT22;18401;49.344;6.240;2023-02-01T11:16:38;6.80;99.90
31837;DHT22;18401;49.344;6.240;2023-02-01T11:19:05;6.60;99.90
31837;DHT22;18401;49.344;6.240;2023-02-01T11:21:32;6.60;99.90
31837;DHT22;18401;49.344;6.240;2023-02-01T11:24:03;6.90;99.90
31837;DHT22;18401;49.344;6.240;2023-02-01T11:26:30;6.80;99.90
31837;DHT22;18401;49.344;6.240;2023-02-01T11:29:00;6.60;99.90
31837;DHT22;18401;49.344;6.240;2023-02-01T11:31:27;6.60;99.90
31837;DHT22;18401;49.344;6.240;2023-02-01T11:33:58;6.50;99.90
31837;DHT22;18401;49.344;6.240;2023-02-01T11:36:28;6.50;99.90
31837;DHT22;18401;49.344;6.240;2023-02-01T11:41:59;6.50;99.90
31837;DHT22;18401;49.344;6.240;2023-02-01T11:49:55;6.40;99.90
31837;DHT22;18401;49.344;6.240;2023-02-01T11:55:17;6.30;99.90
31837;DHT22;18401;49.344;6.240;2023-02-01T12:03:51;6.60;99.90
31837;DHT22;18401;49.344;6.240;2023-02-01T12:09:18;6.70;99.90
31837;DHT22;18401;49.344;6.240;2023-02-01T12:23:14;6.60;99.90
31837;DHT22;18401;49.344;6.240;2023-02-01T12:26:02;6.60;99.90
31837;DHT22;18401;49.344;6.240;2023-02-01T12:28:38;6.60;99.90
31837;DHT22;18401;49.344;6.240;2023-02-01T12:36:36;6.60;99.90
31837;DHT22;18401;49.344;6.240;2023-02-01T12:39:22;6.60;99.90
31837;DHT22;18401;49.344;6.240;2023-02-01T12:41:53;6.70;99.90
31837;DHT22;18401;49.344;6.240;2023-02-01T12:44:35;6.80;99.90
31837;DHT22;18401;49.344;6.240;2023-02-01T12:49:41;6.80;99.90
31837;DHT22;18401;49.344;6.240;2023-02-01T12:52:35;6.80;99.90
31837;DHT22;18401;49.344;6.240;2023-02-01T12:58:11;7.00;99.90
31837;DHT22;18401;49.344;6.240;2023-02-01T13:00:39;6.90;99.90
31837;DHT22;18401;49.344;6.240;2023-02-01T13:03:29;6.90;99.90
31837;DHT22;18401;49.344;6.240;2023-02-01T13:06:17;6.90;99.90
31837;DHT22;18401;49.344;6.240;2023-02-01T13:11:43;6.90;99.90
31837;DHT22;18401;49.344;6.240;2023-02-01T13:16:49;6.60;99.90
31837;DHT22;18401;49.344;6.240;2023-02-01T13:22:00;6.50;99.90
31837;DHT22;18401;49.344;6.240;2023-02-01T13:24:42;6.50;99.90
31837;DHT22;18401;49.344;6.240;2023-02-01T13:27:13;6.70;99.90
31837;DHT22;18401;49.344;6.240;2023-02-01T13:43:35;7.70;99.90
31837;DHT22;18401;49.344;6.240;2023-02-01T13:46:08;7.70;99.90
31837;DHT22;18401;49.344;6.240;2023-02-01T13:49:04;7.70;99.90
31837;DHT22;18401;49.344;6.240;2023-02-01T13:51:35;7.70;99.90
31837;DHT22;18401;49.344;6.240;2023-02-01T13:54:01;7.70;99.90
31837;DHT22;18401;49.344;6.240;2023-02-01T13:56:42;7.60;99.90
31837;DHT22;18401;49.344;6.240;2023-02-01T14:08:38;7.60;99.90
31837;DHT22;18401;49.344;6.240;2023-02-01T14:11:04;7.50;99.90
31837;DHT22;18401;49.344;6.240;2023-02-01T14:13:38;7.50;99.90
31837;DHT22;18401;49.344;6.240;2023-02-01T14:26:44;7.50;99.90
31837;DHT22;18401;49.344;6.240;2023-02-01T14:34:48;7.50;99.90
31837;DHT22;18401;49.344;6.240;2023-02-01T14:50:36;7.30;99.90
31837;DHT22;18401;49.344;6.240;2023-02-01T14:59:01;7.50;99.90
31837;DHT22;18401;49.344;6.240;2023-02-01T15:01:33;7.40;99.90
31837;DHT22;18401;49.344;6.240;2023-02-01T15:04:14;7.80;99.90
31837;DHT22;18401;49.344;6.240;2023-02-01T15:09:25;7.50;99.90
31837;DHT22;18401;49.344;6.240;2023-02-01T15:14:40;7.40;99.90
31837;DHT22;18401;49.344;6.240;2023-02-01T15:17:24;7.60;99.90
31837;DHT22;18401;49.344;6.240;2023-02-01T15:19:57;7.40;99.90
31837;DHT22;18401;49.344;6.240;2023-02-01T15:22:24;7.40;99.90
31837;DHT22;18401;49.344;6.240;2023-02-01T15:24:57;7.30;99.90
31837;DHT22;18401;49.344;6.240;2023-02-01T15:27:24;7.10;99.90
31837;DHT22;18401;49.344;6.240;2023-02-01T15:29:50;7.20;99.90
31837;DHT22;18401;49.344;6.240;2023-02-01T15:32:39;7.30;99.90
31837;DHT22;18401;49.344;6.240;2023-02-01T15:35:05;7.30;99.90
31837;DHT22;18401;49.344;6.240;2023-02-01T15:37:51;7.20;99.90
31837;DHT22;18401;49.344;6.240;2023-02-01T15:40:20;7.20;99.90
31837;DHT22;18401;49.344;6.240;2023-02-01T15:42:58;7.20;99.90
31837;DHT22;18401;49.344;6.240;2023-02-01T15:45:32;7.20;99.90
31837;DHT22;18401;49.344;6.240;2023-02-01T15:47:58;7.20;99.90
31837;DHT22;18401;49.344;6.240;2023-02-01T15:50:26;7.10;99.90
31837;DHT22;18401;49.344;6.240;2023-02-01T15:52:54;7.10;99.90
31837;DHT22;18401;49.344;6.240;2023-02-01T15:55:24;7.10;99.90
31837;DHT22;18401;49.344;6.240;2023-02-01T15:57:57;7.10;99.90
31837;DHT22;18401;49.344;6.240;2023-02-01T16:00:30;6.90;99.90
31837;DHT22;18401;49.344;6.240;2023-02-01T16:03:17;6.80;99.90
31837;DHT22;18401;49.344;6.240;2023-02-01T16:05:55;6.70;99.90
31837;DHT22;18401;49.344;6.240;2023-02-01T16:08:25;6.40;99.90
31837;DHT22;18401;49.344;6.240;2023-02-01T16:11:00;6.50;99.90
31837;DHT22;18401;49.344;6.240;2023-02-01T16:13:27;6.50;99.90
31837;DHT22;18401;49.344;6.240;2023-02-01T16:15:53;6.30;99.90
31837;DHT22;18401;49.344;6.240;2023-02-01T16:18:18;6.20;99.90
31837;DHT22;18401;49.344;6.240;2023-02-01T16:20:44;6.30;99.90
31837;DHT22;18401;49.344;6.240;2023-02-01T16:23:10;6.30;99.90
31837;DHT22;18401;49.344;6.240;2023-02-01T16:25:37;6.30;99.90
31837;DHT22;18401;49.344;6.240;2023-02-01T16:28:03;6.50;99.90
31837;DHT22;18401;49.344;6.240;2023-02-01T16:30:30;6.50;99.90
31837;DHT22;18401;49.344;6.240;2023-02-01T16:33:01;6.70;99.90
31837;DHT22;18401;49.344;6.240;2023-02-01T16:35:36;6.40;99.90
31837;DHT22;18401;49.344;6.240;2023-02-01T16:38:10;6.50;99.90
31837;DHT22;18401;49.344;6.240;2023-02-01T16:40:39;6.50;99.90
31837;DHT22;18401;49.344;6.240;2023-02-01T16:43:17;6.60;99.90
31837;DHT22;18401;49.344;6.240;2023-02-01T16:45:44;6.40;99.90
31837;DHT22;18401;49.344;6.240;2023-02-01T16:48:34;6.30;99.90
31837;DHT22;18401;49.344;6.240;2023-02-01T16:51:09;6.50;99.90
31837;DHT22;18401;49.344;6.240;2023-02-01T16:53:35;6.60;99.90
31837;DHT22;18401;49.344;6.240;2023-02-01T16:56:00;6.60;99.90
31837;DHT22;18401;49.344;6.240;2023-02-01T16:58:28;6.60;99.90
31837;DHT22;18401;49.344;6.240;2023-02-01T17:00:54;6.70;99.90
31837;DHT22;18401;49.344;6.240;2023-02-01T17:03:21;6.60;99.90
31837;DHT22;18401;49.344;6.240;2023-02-01T17:05:50;6.60;99.90
31837;DHT22;18401;49.344;6.240;2023-02-01T17:08:28;6.70;99.90
31837;DHT22;18401;49.344;6.240;2023-02-01T17:10:54;6.70;99.90
31837;DHT22;18401;49.344;6.240;2023-02-01T17:13:20;6.50;99.90
31837;DHT22;18401;49.344;6.240;2023-02-01T17:15:56;6.60;99.90
31837;DHT22;18401;49.344;6.240;2023-02-01T17:18:22;6.60;99.90
31837;DHT22;18401;49.344;6.240;2023-02-01T17:20:50;6.50;99.90
31837;DHT22;18401;49.344;6.240;2023-02-01T17:23:18;6.60;99.90
31837;DHT22;18401;49.344;6.240;2023-02-01T17:25:44;6.60;99.90
31837;DHT22;18401;49.344;6.240;2023-02-01T17:28:09;6.60;99.90
31837;DHT22;18401;49.344;6.240;2023-02-01T17:30:37;6.60;99.90
31837;DHT22;18401;49.344;6.240;2023-02-01T17:33:04;6.60;99.90
31837;DHT22;18401;49.344;6.240;2023-02-01T17:35:31;6.60;99.90
31837;DHT22;18401;49.344;6.240;2023-02-01T17:37:57;6.60;99.90
31837;DHT22;18401;49.344;6.240;2023-02-01T17:40:23;6.60;99.90
31837;DHT22;18401;49.344;6.240;2023-02-01T17:42:49;6.60;99.90
31837;DHT22;18401;49.344;6.240;2023-02-01T17:45:35;6.60;99.90
31837;DHT22;18401;49.344;6.240;2023-02-01T17:48:05;6.60;99.90
31837;DHT22;18401;49.344;6.240;2023-02-01T17:50:34;6.60;99.90
31837;DHT22;18401;49.344;6.240;2023-02-01T17:53:00;6.40;99.90
31837;DHT22;18401;49.344;6.240;2023-02-01T17:55:27;6.20;99.90
31837;DHT22;18401;49.344;6.240;2023-02-01T17:57:53;6.60;99.90
31837;DHT22;18401;49.344;6.240;2023-02-01T18:00:19;6.50;99.90
31837;DHT22;18401;49.344;6.240;2023-02-01T18:02:46;6.50;99.90
31837;DHT22;18401;49.344;6.240;2023-02-01T18:05:22;6.40;99.90
31837;DHT22;18401;49.344;6.240;2023-02-01T18:07:49;6.20;99.90
31837;DHT22;18401;49.344;6.240;2023-02-01T18:10:15;5.90;99.90
31837;DHT22;18401;49.344;6.240;2023-02-01T18:12:41;6.10;99.90
31837;DHT22;18401;49.344;6.240;2023-02-01T18:17:38;5.90;99.90
31837;DHT22;18401;49.344;6.240;2023-02-01T18:20:04;6.10;99.90
31837;DHT22;18401;49.344;6.240;2023-02-01T18:22:30;6.00;99.90
31837;DHT22;18401;49.344;6.240;2023-02-01T18:24:56;5.90;99.90
31837;DHT22;18401;49.344;6.240;2023-02-01T18:27:22;6.10;99.90
31837;DHT22;18401;49.344;6.240;2023-02-01T18:29:48;6.40;99.90
31837;DHT22;18401;49.344;6.240;2023-02-01T18:32:14;6.30;99.90
31837;DHT22;18401;49.344;6.240;2023-02-01T18:34:40;6.30;99.90
31837;DHT22;18401;49.344;6.240;2023-02-01T18:37:05;6.20;99.90
31837;DHT22;18401;49.344;6.240;2023-02-01T18:39:31;6.20;99.90
31837;DHT22;18401;49.344;6.240;2023-02-01T18:41:57;6.20;99.90
31837;DHT22;18401;49.344;6.240;2023-02-01T18:44:23;6.30;99.90
31837;DHT22;18401;49.344;6.240;2023-02-01T18:46:49;6.20;99.90
31837;DHT22;18401;49.344;6.240;2023-02-01T18:49:14;6.20;99.90
31837;DHT22;18401;49.344;6.240;2023-02-01T18:51:43;6.30;99.90
31837;DHT22;18401;49.344;6.240;2023-02-01T18:54:09;6.20;99.90
31837;DHT22;18401;49.344;6.240;2023-02-01T18:56:36;6.10;99.90
31837;DHT22;18401;49.344;6.240;2023-02-01T18:59:02;6.20;99.90
31837;DHT22;18401;49.344;6.240;2023-02-01T19:01:28;6.20;99.90
31837;DHT22;18401;49.344;6.240;2023-02-01T19:03:53;6.20;99.90
31837;DHT22;18401;49.344;6.240;2023-02-01T19:06:19;6.10;99.90
31837;DHT22;18401;49.344;6.240;2023-02-01T19:08:45;6.20;99.90
31837;DHT22;18401;49.344;6.240;2023-02-01T19:11:11;6.40;99.90
31837;DHT22;18401;49.344;6.240;2023-02-01T19:13:38;6.50;99.90
31837;DHT22;18401;49.344;6.240;2023-02-01T19:16:09;6.70;99.90
31837;DHT22;18401;49.344;6.240;2023-02-01T19:18:35;6.60;99.90
31837;DHT22;18401;49.344;6.240;2023-02-01T19:21:08;6.60;99.90
31837;DHT22;18401;49.344;6.240;2023-02-01T19:23:34;6.50;99.90
31837;DHT22;18401;49.344;6.240;2023-02-01T19:26:00;6.60;99.90
31837;DHT22;18401;49.344;6.240;2023-02-01T19:28:26;6.50;99.90
31837;DHT22;18401;49.344;6.240;2023-02-01T19:31:04;6.60;99.90
31837;DHT22;18401;49.344;6.240;2023-02-01T19:33:30;6.60;99.90
31837;DHT22;18401;49.344;6.240;2023-02-01T19:36:00;6.60;99.90
31837;DHT22;18401;49.344;6.240;2023-02-01T19:38:27;6.60;99.90
31837;DHT22;18401;49.344;6.240;2023-02-01T19:40:56;6.70;99.90
31837;DHT22;18401;49.344;6.240;2023-02-01T19:43:22;6.70;99.90
31837;DHT22;18401;49.344;6.240;2023-02-01T19:45:48;6.70;99.90
31837;DHT22;18401;49.344;6.240;2023-02-01T19:48:14;6.80;99.90
31837;DHT22;18401;49.344;6.240;2023-02-01T19:50:40;6.70;99.90
31837;DHT22;18401;49.344;6.240;2023-02-01T19:53:06;6.70;99.90
31837;DHT22;18401;49.344;6.240;2023-02-01T19:55:32;6.60;99.90
31837;DHT22;18401;49.344;6.240;2023-02-01T19:57:58;6.60;99.90
31837;DHT22;18401;49.344;6.240;2023-02-01T20:00:23;6.60;99.90
31837;DHT22;18401;49.344;6.240;2023-02-01T20:02:50;6.70;99.90
31837;DHT22;18401;49.344;6.240;2023-02-01T20:05:16;6.60;99.90
31837;DHT22;18401;49.344;6.240;2023-02-01T20:07:43;6.50;99.90
31837;DHT22;18401;49.344;6.240;2023-02-01T20:10:09;6.50;99.90
31837;DHT22;18401;49.344;6.240;2023-02-01T20:12:35;6.40;99.90
31837;DHT22;18401;49.344;6.240;2023-02-01T20:15:01;6.40;99.90
31837;DHT22;18401;49.344;6.240;2023-02-01T20:17:27;6.40;99.90
31837;DHT22;18401;49.344;6.240;2023-02-01T20:19:53;6.40;99.90
31837;DHT22;18401;49.344;6.240;2023-02-01T20:22:20;6.40;99.90
31837;DHT22;18401;49.344;6.240;2023-02-01T20:24:46;6.40;99.90
31837;DHT22;18401;49.344;6.240;2023-02-01T20:27:11;6.40;99.90
31837;DHT22;18401;49.344;6.240;2023-02-01T20:29:38;6.30;99.90
31837;DHT22;18401;49.344;6.240;2023-02-01T20:32:05;6.30;99.90
31837;DHT22;18401;49.344;6.240;2023-02-01T20:34:31;6.20;99.90
31837;DHT22;18401;49.344;6.240;2023-02-01T20:36:56;6.10;99.90
31837;DHT22;18401;49.344;6.240;2023-02-01T20:39:22;6.20;99.90
31837;DHT22;18401;49.344;6.240;2023-02-01T20:41:48;6.20;99.90
31837;DHT22;18401;49.344;6.240;2023-02-01T20:44:13;6.20;99.90
31837;DHT22;18401;49.344;6.240;2023-02-01T20:46:39;6.20;99.90
31837;DHT22;18401;49.344;6.240;2023-02-01T20:49:04;6.20;99.90
31837;DHT22;18401;49.344;6.240;2023-02-01T20:51:30;6.20;99.90
31837;DHT22;18401;49.344;6.240;2023-02-01T20:53:56;6.30;99.90
31837;DHT22;18401;49.344;6.240;2023-02-01T20:56:22;6.20;99.90
31837;DHT22;18401;49.344;6.240;2023-02-01T20:58:48;6.40;99.90
31837;DHT22;18401;49.344;6.240;2023-02-01T21:01:14;6.30;99.90
31837;DHT22;18401;49.344;6.240;2023-02-01T21:03:40;6.30;99.90
31837;DHT22;18401;49.344;6.240;2023-02-01T21:06:06;6.30;99.90
31837;DHT22;18401;49.344;6.240;2023-02-01T21:08:33;6.30;99.90
31837;DHT22;18401;49.344;6.240;2023-02-01T21:13:27;6.20;99.90
31837;DHT22;18401;49.344;6.240;2023-02-01T21:15:54;6.20;99.90
31837;DHT22;18401;49.344;6.240;2023-02-01T21:18:20;6.30;99.90
31837;DHT22;18401;49.344;6.240;2023-02-01T21:20:46;6.30;99.90
31837;DHT22;18401;49.344;6.240;2023-02-01T21:23:13;6.30;99.90
31837;DHT22;18401;49.344;6.240;2023-02-01T21:25:40;6.20;99.90
31837;DHT22;18401;49.344;6.240;2023-02-01T21:28:06;6.30;99.90
31837;DHT22;18401;49.344;6.240;2023-02-01T21:30:31;6.30;99.90
31837;DHT22;18401;49.344;6.240;2023-02-01T21:32:57;6.40;99.90
31837;DHT22;18401;49.344;6.240;2023-02-01T21:35:24;6.30;99.90
31837;DHT22;18401;49.344;6.240;2023-02-01T21:37:49;6.40;99.90
31837;DHT22;18401;49.344;6.240;2023-02-01T21:40:15;6.30;99.90
31837;DHT22;18401;49.344;6.240;2023-02-01T21:42:41;6.30;99.90
31837;DHT22;18401;49.344;6.240;2023-02-01T21:45:10;6.40;99.90
31837;DHT22;18401;49.344;6.240;2023-02-01T21:47:36;6.40;99.90
31837;DHT22;18401;49.344;6.240;2023-02-01T21:50:08;6.30;99.90
31837;DHT22;18401;49.344;6.240;2023-02-01T21:52:34;6.30;99.90
31837;DHT22;18401;49.344;6.240;2023-02-01T21:55:03;6.30;99.90
31837;DHT22;18401;49.344;6.240;2023-02-01T21:57:29;6.30;99.90
31837;DHT22;18401;49.344;6.240;2023-02-01T21:59:55;6.30;99.90
31837;DHT22;18401;49.344;6.240;2023-02-01T22:02:23;6.20;99.90
31837;DHT22;18401;49.344;6.240;2023-02-01T22:04:49;6.20;99.90
31837;DHT22;18401;49.344;6.240;2023-02-01T22:07:15;6.20;99.90
31837;DHT22;18401;49.344;6.240;2023-02-01T22:09:41;6.20;99.90
31837;DHT22;18401;49.344;6.240;2023-02-01T22:12:10;6.20;99.90
31837;DHT22;18401;49.344;6.240;2023-02-01T22:14:36;6.20;99.90
31837;DHT22;18401;49.344;6.240;2023-02-01T22:17:02;6.20;99.90
31837;DHT22;18401;49.344;6.240;2023-02-01T22:19:28;6.20;99.90
31837;DHT22;18401;49.344;6.240;2023-02-01T22:21:53;6.30;99.90
31837;DHT22;18401;49.344;6.240;2023-02-01T22:24:19;6.30;99.90
31837;DHT22;18401;49.344;6.240;2023-02-01T22:26:46;6.20;99.90
31837;DHT22;18401;49.344;6.240;2023-02-01T22:29:11;6.30;99.90
31837;DHT22;18401;49.344;6.240;2023-02-01T22:31:38;6.30;99.90
31837;DHT22;18401;49.344;6.240;2023-02-01T22:34:04;6.30;99.90
31837;DHT22;18401;49.344;6.240;2023-02-01T22:36:29;6.30;99.90
31837;DHT22;18401;49.344;6.240;2023-02-01T22:38:56;6.30;99.90
31837;DHT22;18401;49.344;6.240;2023-02-01T22:41:23;6.30;99.90
31837;DHT22;18401;49.344;6.240;2023-02-01T22:43:48;6.20;99.90